KTOP

Philip Billard Municipal Airport

Topeka, Kansas, USA
METAR KTOP 100553Z AUTO 00000KT 7SM CLR M06/M07 A3033 RMK AO2 SLP282 T10561072 10000 21061 400501089 54000
Observed Flight Rules
Dec-10 @ 05:53 UTC (36 minutes ago) Visual Flight Rules
Visibility Clouds
7 miles
  • Clear skies
Temperatures Readings
Current -6°C / 21°F
Dewpoint -7°C / 19°F
Humidity 93%
Altimeter 30.33" Hg
Pressure 1028.2 hPa
Elevation 268
METAR KTOP 100553Z AUTO 00000KT 7SM CLR M06/M07 A3033 RMK AO2 SLP282 T10561072 10000 21061 400501089 54000
Observed Flight Rules
Dec-10 @ 05:53 UTC
(36 minutes ago)
VFR
Clouds
  • Clear skies
Temperature Dewpoint
-6°C / 21°F -7°C / 19°F
Humidity Altimeter Pressure
93% 30.33" Hg 1028.2 hPa